Time;durP1;ratioP1;P1;durP2;ratioP2;P2;SDS_P1;SDS_P2;PMS_P1;PMS_P2;Temp;Humidity;BMP_temperature;BMP_pressure;BME280_temperature;BME280_humidity;BME280_pressure;Samples;Min_cycle;Max_cycle;Signal;HPM_P1;HPM_P2
2023/06/10 00:02:21;;;;;;;12.68;5.22;;;;;;;15.36;100.00;101025.22;5029686;28;20080;-62
2023/06/10 00:04:47;;;;;;;14.50;5.28;;;;;;;15.39;100.00;101027.56;5029879;28;20124;-71
2023/06/10 00:07:14;;;;;;;15.32;4.43;;;;;;;15.49;100.00;101007.31;5030211;28;20045;-71
2023/06/10 00:09:40;;;;;;;13.57;5.20;;;;;;;15.47;100.00;101013.97;5030021;28;20053;-71
2023/06/10 00:12:09;;;;;;;16.40;5.13;;;;;;;15.06;100.00;101022.47;5040736;28;20119;-71
2023/06/10 00:14:38;;;;;;;18.92;4.82;;;;;;;14.70;100.00;101012.28;5053660;28;20075;-71
2023/06/10 00:17:05;;;;;;;12.27;5.18;;;;;;;14.70;100.00;101009.56;5053501;28;20045;-72
2023/06/10 00:19:31;;;;;;;14.60;4.78;;;;;;;14.86;100.00;101016.72;5053413;28;20096;-72
2023/06/10 00:21:58;;;;;;;11.90;5.28;;;;;;;14.93;100.00;101011.44;5052143;28;20084;-64
2023/06/10 00:24:24;;;;;;;12.77;5.20;;;;;;;14.89;100.00;101008.25;5053432;28;20040;-64
2023/06/10 00:26:51;;;;;;;15.10;5.15;;;;;;;15.13;100.00;101015.31;5053064;28;20431;-62
2023/06/10 00:29:17;;;;;;;16.52;5.57;;;;;;;14.80;100.00;101006.63;5053486;28;20052;-62
2023/06/10 00:31:45;;;;;;;16.73;5.00;;;;;;;15.14;100.00;101003.47;5036110;28;20053;-62
2023/06/10 00:34:11;;;;;;;17.95;4.93;;;;;;;14.80;100.00;101008.50;5053397;28;20503;-64
2023/06/10 00:36:38;;;;;;;15.45;5.80;;;;;;;14.80;100.00;101013.91;5053570;28;20048;-64
2023/06/10 00:39:04;;;;;;;18.85;5.38;;;;;;;14.63;100.00;101016.69;5053526;28;20057;-73
2023/06/10 00:41:31;;;;;;;18.50;5.40;;;;;;;14.64;100.00;101013.00;5052390;28;20106;-71
2023/06/10 00:43:58;;;;;;;17.88;5.03;;;;;;;14.75;100.00;101023.41;5051516;28;20432;-72
2023/06/10 00:46:26;;;;;;;12.80;5.45;;;;;;;14.75;100.00;101009.88;5052217;28;20048;-73
2023/06/10 00:48:53;;;;;;;17.25;5.63;;;;;;;14.77;100.00;101012.41;5052056;28;20047;-72
2023/06/10 00:51:20;;;;;;;15.75;5.35;;;;;;;14.83;100.00;101008.97;5051469;28;20065;-72
2023/06/10 00:53:48;;;;;;;18.60;5.07;;;;;;;15.01;100.00;101014.06;5052580;28;20417;-70
2023/06/10 00:56:15;;;;;;;18.63;5.18;;;;;;;15.16;100.00;101012.25;5052736;28;20044;-73
2023/06/10 00:58:42;;;;;;;18.90;5.32;;;;;;;15.20;100.00;101018.97;5041451;28;20048;-70
2023/06/10 01:01:10;;;;;;;14.30;5.28;;;;;;;15.00;100.00;101018.63;5051715;28;20450;-71
2023/06/10 01:03:39;;;;;;;13.80;5.13;;;;;;;14.81;100.00;101013.75;5052305;28;20504;-72
2023/06/10 01:10:03;;;;;;;12.93;5.10;;;;;;;15.08;100.00;101019.56;5049684;28;20079;-68
2023/06/10 01:12:32;;;;;;;15.77;5.20;;;;;;;14.58;100.00;101023.66;5063954;28;20075;-72
2023/06/10 01:15:01;;;;;;;16.65;5.35;;;;;;;14.45;100.00;101024.25;5071560;28;20048;-72
2023/06/10 01:17:28;;;;;;;13.93;4.60;;;;;;;14.66;100.00;101020.91;5071844;28;20468;-72
2023/06/10 01:19:58;;;;;;;13.90;5.15;;;;;;;14.74;100.00;101029.81;5071458;28;20056;-71
2023/06/10 01:22:36;;;;;;;17.95;5.57;;;;;;;14.51;100.00;101028.94;5071076;28;20046;-71
2023/06/10 01:25:03;;;;;;;13.43;4.80;;;;;;;14.48;100.00;101027.44;5071117;28;20060;-71
2023/06/10 01:27:39;;;;;;;15.75;5.40;;;;;;;14.43;100.00;101015.50;5071635;28;20131;-73
2023/06/10 01:30:15;;;;;;;13.60;5.30;;;;;;;14.14;100.00;101025.09;5071387;28;20047;-72
2023/06/10 01:32:49;;;;;;;16.85;5.60;;;;;;;14.14;100.00;101027.78;5071422;28;20053;-72
2023/06/10 01:35:18;;;;;;;18.23;5.22;;;;;;;13.92;100.00;101032.09;5070550;28;20450;-72
2023/06/10 01:37:48;;;;;;;16.17;5.30;;;;;;;14.36;100.00;101031.56;5069304;28;20064;-72
2023/06/10 01:40:15;;;;;;;17.70;5.90;;;;;;;14.40;100.00;101034.75;5050412;28;20136;-72
2023/06/10 01:42:42;;;;;;;17.80;4.72;;;;;;;14.27;100.00;101030.75;5051315;28;20066;-72
2023/06/10 01:45:09;;;;;;;18.63;5.82;;;;;;;14.13;100.00;101033.38;5051596;28;20152;-72
2023/06/10 01:47:36;;;;;;;22.92;5.57;;;;;;;14.18;100.00;101030.97;5051284;28;20443;-72
2023/06/10 01:50:03;;;;;;;21.50;5.93;;;;;;;13.88;100.00;101027.25;5040445;28;20053;-71
2023/06/10 01:52:30;;;;;;;13.98;4.60;;;;;;;13.89;100.00;101028.91;5050083;28;20049;-72
2023/06/10 01:54:56;;;;;;;21.35;5.53;;;;;;;14.01;100.00;101031.06;5050978;28;20103;-72
2023/06/10 01:57:23;;;;;;;15.73;5.10;;;;;;;13.83;100.00;101038.53;5050857;28;20612;-71
2023/06/10 01:59:49;;;;;;;18.75;5.22;;;;;;;13.83;100.00;101036.66;5051625;28;20106;-71
2023/06/10 02:02:16;;;;;;;20.65;5.70;;;;;;;13.66;100.00;101032.31;5050549;28;20096;-72
2023/06/10 02:04:42;;;;;;;13.40;5.38;;;;;;;13.47;100.00;101032.72;5051211;28;20064;-73
2023/06/10 02:07:09;;;;;;;14.48;5.45;;;;;;;13.70;100.00;101032.81;5050993;28;20087;-71
2023/06/10 02:09:36;;;;;;;16.33;6.70;;;;;;;13.59;100.00;101031.31;5050743;28;20094;-71
2023/06/10 02:12:03;;;;;;;16.58;5.53;;;;;;;13.44;100.00;101033.06;5059862;28;20044;-72
2023/06/10 02:14:32;;;;;;;19.80;5.60;;;;;;;13.51;100.00;101039.44;5070977;28;20054;-72
2023/06/10 02:16:59;;;;;;;14.70;5.88;;;;;;;13.65;100.00;101045.97;5070796;28;20496;-71
2023/06/10 02:19:26;;;;;;;19.23;6.18;;;;;;;13.64;100.00;101036.22;5071242;28;20048;-71
2023/06/10 02:21:53;;;;;;;21.13;5.07;;;;;;;13.71;100.00;101037.22;5053477;28;20048;-70
2023/06/10 02:24:19;;;;;;;20.73;5.47;;;;;;;13.54;100.00;101037.25;5070789;28;20048;-70
2023/06/10 02:26:47;;;;;;;18.50;5.40;;;;;;;13.62;100.00;101044.47;5070093;28;20052;-72
2023/06/10 02:29:14;;;;;;;17.58;5.10;;;;;;;13.75;100.00;101033.16;5071073;28;20103;-72
2023/06/10 02:31:41;;;;;;;21.95;5.35;;;;;;;13.91;100.00;101034.97;5070519;28;20572;-72
2023/06/10 02:34:07;;;;;;;23.35;6.45;;;;;;;13.79;100.00;101039.91;5070074;28;20040;-72
2023/06/10 02:36:35;;;;;;;17.88;5.28;;;;;;;14.05;100.00;101045.03;5070360;28;20102;-71
2023/06/10 02:39:04;;;;;;;15.40;5.35;;;;;;;14.04;100.00;101038.78;5058810;28;20048;-72
2023/06/10 02:41:30;;;;;;;17.23;5.53;;;;;;;13.73;100.00;101040.56;5050870;28;20045;-72
2023/06/10 02:43:57;;;;;;;12.55;5.57;;;;;;;13.65;100.00;101035.19;5038943;28;20048;-72
2023/06/10 02:46:23;;;;;;;12.27;5.68;;;;;;;13.57;100.00;101041.47;5050431;28;20048;-72
2023/06/10 02:48:51;;;;;;;16.52;5.95;;;;;;;13.17;100.00;101043.19;5051380;28;20118;-66
2023/06/10 02:51:18;;;;;;;20.30;5.32;;;;;;;13.42;100.00;101043.16;5050860;28;20045;-64
2023/06/10 02:53:45;;;;;;;16.90;5.30;;;;;;;13.30;100.00;101040.81;5050514;28;20504;-64
2023/06/10 02:56:12;;;;;;;22.38;6.45;;;;;;;13.22;100.00;101048.09;5049491;28;20061;-63
2023/06/10 02:58:39;;;;;;;21.48;6.32;;;;;;;13.28;100.00;101039.31;5050179;28;20493;-64
2023/06/10 03:01:05;;;;;;;13.75;5.18;;;;;;;13.50;100.00;101045.84;5049827;28;20045;-62
2023/06/10 03:03:33;;;;;;;12.07;4.93;;;;;;;13.45;100.00;101045.50;5050411;28;20484;-62
2023/06/10 03:06:00;;;;;;;13.52;5.68;;;;;;;13.46;100.00;101055.31;5049964;28;20044;-63
2023/06/10 03:08:27;;;;;;;23.58;6.72;;;;;;;13.56;100.00;101050.53;5050112;28;20541;-66
2023/06/10 03:10:53;;;;;;;18.08;5.35;;;;;;;13.57;100.00;101050.38;5049714;28;20122;-63
2023/06/10 03:13:20;;;;;;;20.33;4.97;;;;;;;13.66;100.00;101045.78;5070330;28;20075;-62
2023/06/10 03:15:47;;;;;;;23.23;6.53;;;;;;;13.64;100.00;101039.75;5069718;28;20094;-63
2023/06/10 03:18:14;;;;;;;21.08;6.22;;;;;;;13.31;100.00;101050.56;5069015;28;20060;-72
2023/06/10 03:20:40;;;;;;;21.00;5.80;;;;;;;13.33;100.00;101050.44;5070610;28;20045;-73
2023/06/10 03:23:07;;;;;;;20.58;5.95;;;;;;;13.42;100.00;101051.25;5070077;28;20087;-73
2023/06/10 03:25:34;;;;;;;19.35;6.45;;;;;;;13.34;100.00;101049.41;5069865;28;20067;-72
2023/06/10 03:28:01;;;;;;;18.70;6.72;;;;;;;13.08;100.00;101045.06;5069609;28;20559;-73
2023/06/10 03:30:28;;;;;;;17.40;6.65;;;;;;;13.15;100.00;101055.16;5070083;28;20056;-72
2023/06/10 03:32:54;;;;;;;15.63;6.20;;;;;;;13.09;100.00;101051.28;5069741;28;20056;-65
2023/06/10 03:35:22;;;;;;;17.77;6.15;;;;;;;13.54;100.00;101049.88;5070590;28;20045;-64
2023/06/10 03:37:49;;;;;;;13.55;5.55;;;;;;;13.48;100.00;101056.78;5068419;28;20113;-64
2023/06/10 03:40:15;;;;;;;16.17;5.72;;;;;;;13.64;100.00;101053.22;5050552;28;20044;-64
2023/06/10 03:42:43;;;;;;;12.85;5.68;;;;;;;13.64;100.00;101057.78;5050308;28;20052;-65
2023/06/10 03:45:10;;;;;;;23.80;6.10;;;;;;;13.38;100.00;101055.28;5050668;28;20041;-64
2023/06/10 03:47:38;;;;;;;20.40;6.28;;;;;;;13.26;100.00;101054.81;5051735;28;20047;-64
2023/06/10 03:50:05;;;;;;;20.20;6.55;;;;;;;13.40;100.00;101062.19;5053962;28;20052;-64
2023/06/10 03:52:31;;;;;;;18.13;6.22;;;;;;;13.65;100.00;101068.38;5054027;28;20049;-64
2023/06/10 03:54:58;;;;;;;18.88;6.32;;;;;;;13.57;100.00;101068.41;5054312;28;20045;-63
2023/06/10 03:57:25;;;;;;;13.90;6.20;;;;;;;13.37;100.00;101061.69;5054398;28;20041;-64
2023/06/10 03:59:52;;;;;;;16.27;6.00;;;;;;;13.31;100.00;101057.81;5054549;28;20068;-64
2023/06/10 04:02:18;;;;;;;19.52;6.40;;;;;;;13.24;100.00;101056.81;5054453;28;20411;-65
2023/06/10 04:04:45;;;;;;;21.65;6.43;;;;;;;13.45;100.00;101072.47;5053387;28;20052;-64
2023/06/10 04:07:12;;;;;;;15.63;6.47;;;;;;;13.87;100.00;101058.75;5053786;28;20132;-64
2023/06/10 04:09:38;;;;;;;12.93;6.00;;;;;;;13.55;100.00;101075.81;5053536;28;20049;-64
2023/06/10 04:12:10;;;;;;;21.17;6.50;;;;;;;13.40;100.00;101072.16;5062420;28;20393;-64
2023/06/10 04:14:37;;;;;;;18.42;5.80;;;;;;;13.89;100.00;101062.13;5056033;28;20407;-64
2023/06/10 04:17:08;;;;;;;18.27;6.65;;;;;;;14.18;100.00;101077.66;5072885;28;20052;-64
2023/06/10 04:19:35;;;;;;;18.25;6.55;;;;;;;13.77;100.00;101085.94;5073556;28;20044;-64
2023/06/10 04:22:05;;;;;;;21.20;6.72;;;;;;;13.80;100.00;101074.81;5073622;28;20202;-63
2023/06/10 04:24:31;;;;;;;18.02;6.63;;;;;;;13.79;100.00;101070.41;5073506;28;20084;-64
2023/06/10 04:26:58;;;;;;;15.55;5.82;;;;;;;13.87;100.00;101063.28;5072968;28;20083;-64
2023/06/10 04:29:25;;;;;;;14.20;5.53;;;;;;;13.99;100.00;101067.31;5073510;28;20052;-64
2023/06/10 04:31:51;;;;;;;22.25;7.00;;;;;;;13.77;100.00;101067.06;5073133;28;20076;-64
2023/06/10 04:34:18;;;;;;;16.45;6.07;;;;;;;13.73;100.00;101068.34;5072923;28;20037;-65
2023/06/10 04:36:44;;;;;;;19.80;5.95;;;;;;;13.81;100.00;101075.63;5055579;28;20056;-65
2023/06/10 04:39:11;;;;;;;16.85;6.85;;;;;;;13.64;100.00;101082.88;5059815;28;20493;-64
2023/06/10 04:41:37;;;;;;;14.45;6.80;;;;;;;13.48;100.00;101089.13;5051380;28;20083;-64
2023/06/10 04:44:04;;;;;;;23.10;7.05;;;;;;;13.56;100.00;101085.56;5053241;28;20052;-63
2023/06/10 04:46:31;;;;;;;20.50;6.63;;;;;;;13.52;100.00;101092.31;5053210;28;20049;-65
2023/06/10 04:48:58;;;;;;;22.23;6.88;;;;;;;13.67;100.00;101087.94;5052734;28;20122;-64
2023/06/10 04:51:24;;;;;;;17.88;6.65;;;;;;;13.69;100.00;101091.28;5052713;28;20401;-63
2023/06/10 04:53:51;;;;;;;16.02;5.88;;;;;;;13.70;100.00;101093.00;5053190;28;20053;-64
2023/06/10 04:56:18;;;;;;;21.13;6.95;;;;;;;13.62;100.00;101090.28;5053201;28;20068;-64
2023/06/10 04:58:44;;;;;;;12.88;5.97;;;;;;;13.67;100.00;101085.25;5051619;28;20111;-63
2023/06/10 05:01:11;;;;;;;17.02;7.13;;;;;;;13.82;100.00;101094.31;5052864;28;20493;-62
2023/06/10 05:03:37;;;;;;;25.17;8.82;;;;;;;13.70;100.00;101097.50;5052439;28;20464;-64
2023/06/10 05:06:04;;;;;;;18.27;7.40;;;;;;;13.96;100.00;101091.94;5052563;28;20055;-64
2023/06/10 05:08:30;;;;;;;19.90;6.40;;;;;;;13.87;100.00;101099.19;5052730;28;20076;-63
2023/06/10 05:10:58;;;;;;;17.77;6.72;;;;;;;13.64;100.00;101103.63;5052580;28;20440;-64
2023/06/10 05:13:24;;;;;;;14.23;6.65;;;;;;;13.56;100.00;101104.44;5052055;28;20044;-65
2023/06/10 05:15:51;;;;;;;18.17;6.82;;;;;;;13.45;100.00;101102.09;5052359;28;20056;-65
2023/06/10 05:18:18;;;;;;;17.27;7.07;;;;;;;13.79;100.00;101093.84;5051450;28;20045;-64
2023/06/10 05:20:45;;;;;;;18.73;7.70;;;;;;;13.77;100.00;101103.97;5052313;28;20052;-64
2023/06/10 05:23:11;;;;;;;17.27;6.65;;;;;;;13.81;100.00;101098.03;5052206;28;20053;-64
2023/06/10 05:28:13;;;;;;;17.33;7.05;;;;;;;13.63;100.00;101113.56;5309064;22;20053;-61
2023/06/10 05:30:41;;;;;;;19.92;6.60;;;;;;;13.64;100.00;101117.09;5032048;28;20120;-61
2023/06/10 05:33:07;;;;;;;17.73;7.30;;;;;;;13.61;100.00;101112.88;5032257;28;20115;-61
2023/06/10 05:35:34;;;;;;;17.45;7.10;;;;;;;13.68;100.00;101113.03;5035032;28;20535;-61
2023/06/10 05:38:01;;;;;;;15.52;6.88;;;;;;;14.01;100.00;101109.28;5051558;28;20526;-61
2023/06/10 05:40:29;;;;;;;17.00;7.28;;;;;;;13.92;100.00;101106.78;5051918;28;20049;-61
2023/06/10 05:42:56;;;;;;;14.90;6.88;;;;;;;13.93;100.00;101113.84;5051681;28;20103;-61
2023/06/10 05:45:22;;;;;;;21.90;7.25;;;;;;;13.92;100.00;101115.72;5038257;28;20103;-61
2023/06/10 05:47:50;;;;;;;18.75;7.75;;;;;;;13.91;100.00;101114.03;5014405;28;20057;-62
2023/06/10 05:50:17;;;;;;;26.33;8.05;;;;;;;14.19;100.00;101114.47;5031794;28;20052;-61
2023/06/10 05:52:43;;;;;;;24.60;7.57;;;;;;;14.14;100.00;101107.88;5031974;28;20484;-61
2023/06/10 05:55:10;;;;;;;18.20;7.25;;;;;;;14.08;100.00;101114.84;5031506;28;20083;-60
2023/06/10 05:57:37;;;;;;;16.70;7.38;;;;;;;14.41;100.00;101115.53;5031718;28;20046;-61
2023/06/10 06:00:04;;;;;;;21.00;6.75;;;;;;;14.64;100.00;101115.59;5031351;28;20111;-60
2023/06/10 06:02:31;;;;;;;17.38;7.22;;;;;;;14.44;100.00;101117.88;5031302;28;20051;-62
2023/06/10 06:04:57;;;;;;;17.92;7.07;;;;;;;14.51;100.00;101112.63;5030875;28;20076;-61
2023/06/10 06:07:24;;;;;;;17.25;7.78;;;;;;;14.66;100.00;101118.09;5031172;28;20053;-61
2023/06/10 06:09:51;;;;;;;17.90;7.80;;;;;;;14.60;100.00;101122.38;5031348;28;20045;-62
2023/06/10 06:12:17;;;;;;;18.05;7.25;;;;;;;14.97;100.00;101127.06;5031281;28;20124;-61
2023/06/10 06:14:45;;;;;;;17.45;7.45;;;;;;;14.92;100.00;101128.63;5013952;28;20446;-62
2023/06/10 06:17:12;;;;;;;17.35;6.85;;;;;;;15.03;100.00;101130.06;5031002;28;20041;-62
2023/06/10 06:19:39;;;;;;;20.50;7.45;;;;;;;15.16;100.00;101128.44;5031139;28;20366;-62
2023/06/10 06:22:05;;;;;;;21.15;7.05;;;;;;;15.31;100.00;101133.06;5030855;28;20050;-62
2023/06/10 06:24:32;;;;;;;14.02;7.47;;;;;;;15.38;100.00;101134.03;5031014;28;20046;-62
2023/06/10 06:26:59;;;;;;;20.13;7.10;;;;;;;15.56;100.00;101130.97;5033343;28;20057;-62
2023/06/10 06:29:25;;;;;;;14.80;7.35;;;;;;;15.80;100.00;101138.88;5031159;28;20452;-62
2023/06/10 06:31:52;;;;;;;18.83;7.22;;;;;;;15.80;100.00;101129.94;5031051;28;20060;-62
2023/06/10 06:34:19;;;;;;;24.77;7.78;;;;;;;15.77;100.00;101135.72;5031163;28;20493;-62
2023/06/10 06:36:46;;;;;;;14.13;6.80;;;;;;;15.76;100.00;101140.28;5030331;28;20456;-62
2023/06/10 06:39:12;;;;;;;12.95;6.57;;;;;;;15.94;100.00;101142.63;5031152;28;20416;-62
2023/06/10 06:41:39;;;;;;;18.85;6.90;;;;;;;16.07;100.00;101144.72;5030165;28;20095;-62
2023/06/10 06:44:05;;;;;;;15.50;6.60;;;;;;;16.39;100.00;101144.31;5030518;28;20144;-62
2023/06/10 06:46:32;;;;;;;16.38;6.32;;;;;;;16.47;100.00;101137.97;5030489;28;20056;-63
2023/06/10 06:48:58;;;;;;;22.55;7.05;;;;;;;16.72;100.00;101143.09;5030384;28;20468;-62
2023/06/10 06:51:25;;;;;;;19.05;7.65;;;;;;;16.90;100.00;101144.34;5030535;28;20400;-60
2023/06/10 06:53:54;;;;;;;18.38;6.95;;;;;;;16.76;100.00;101144.38;5030757;28;20045;-60
2023/06/10 06:56:21;;;;;;;15.70;7.53;;;;;;;16.61;100.00;101152.56;5029990;28;20041;-62
2023/06/10 06:58:47;;;;;;;16.33;7.18;;;;;;;16.70;100.00;101151.41;5030061;28;20464;-62
2023/06/10 07:01:14;;;;;;;24.73;8.30;;;;;;;16.58;100.00;101152.94;5030604;28;20049;-62
2023/06/10 07:03:41;;;;;;;16.73;7.43;;;;;;;16.57;100.00;101159.34;5029140;28;20041;-62
2023/06/10 07:06:07;;;;;;;16.45;7.78;;;;;;;16.52;100.00;101148.25;5030273;28;20045;-61
2023/06/10 07:08:34;;;;;;;16.80;7.10;;;;;;;16.58;100.00;101152.94;5029347;28;20099;-62
2023/06/10 07:11:00;;;;;;;24.25;7.88;;;;;;;16.77;100.00;101156.91;5030061;28;20045;-61
2023/06/10 07:13:27;;;;;;;15.02;6.90;;;;;;;16.99;100.00;101164.03;5030288;28;20045;-61
2023/06/10 07:15:54;;;;;;;18.83;7.15;;;;;;;17.49;100.00;101162.25;5029858;28;20084;-64
2023/06/10 07:18:20;;;;;;;13.98;7.22;;;;;;;17.56;100.00;101165.03;5030791;28;20049;-61
2023/06/10 07:20:47;;;;;;;15.88;7.10;;;;;;;17.84;100.00;101156.91;5030278;28;20073;-61
2023/06/10 07:23:13;;;;;;;16.40;6.63;;;;;;;17.97;100.00;101165.16;5029622;28;20046;-62
2023/06/10 07:25:41;;;;;;;21.60;7.07;;;;;;;18.00;100.00;101158.50;5030032;28;20053;-61
2023/06/10 07:28:08;;;;;;;20.65;7.50;;;;;;;18.20;100.00;101166.75;5029757;28;20064;-61
2023/06/10 07:30:34;;;;;;;18.65;6.95;;;;;;;18.15;100.00;101161.94;5030366;28;20463;-61
2023/06/10 07:33:02;;;;;;;18.38;7.63;;;;;;;18.37;100.00;101176.25;5029189;28;20100;-62
2023/06/10 07:35:29;;;;;;;16.65;7.05;;;;;;;18.43;100.00;101178.19;5029055;28;20492;-62
2023/06/10 07:37:55;;;;;;;11.27;6.78;;;;;;;18.66;100.00;101179.78;5030314;28;20053;-61
2023/06/10 07:40:22;;;;;;;17.88;6.90;;;;;;;18.71;100.00;101171.81;5030613;28;20050;-61
2023/06/10 07:42:48;;;;;;;20.45;6.90;;;;;;;19.35;100.00;101187.72;5029921;28;20041;-62
2023/06/10 07:45:15;;;;;;;20.30;7.88;;;;;;;19.41;100.00;101186.88;5029150;28;20099;-60
2023/06/10 07:47:42;;;;;;;15.52;6.45;;;;;;;19.53;100.00;101178.13;5030056;28;20449;-60
2023/06/10 07:50:09;;;;;;;19.98;7.50;;;;;;;19.90;100.00;101177.53;5028899;28;20072;-60
2023/06/10 07:52:36;;;;;;;15.38;7.25;;;;;;;20.01;97.43;101178.75;5029308;28;20107;-60
2023/06/10 07:55:04;;;;;;;13.38;6.60;;;;;;;19.63;100.00;101175.81;5029972;28;20574;-60
2023/06/10 07:57:34;;;;;;;15.25;6.95;;;;;;;19.97;99.84;101177.50;5029512;28;20386;-61
2023/06/10 08:00:03;;;;;;;16.15;6.63;;;;;;;20.24;96.78;101183.72;5028837;28;20079;-61
2023/06/10 08:02:30;;;;;;;16.63;7.60;;;;;;;20.04;96.59;101181.06;5029476;28;20045;-60
2023/06/10 08:04:57;;;;;;;13.60;6.70;;;;;;;20.06;96.79;101176.22;5028749;28;20405;-61
2023/06/10 08:07:24;;;;;;;19.30;7.18;;;;;;;19.63;100.00;101176.66;5029867;28;20076;-60
2023/06/10 08:09:50;;;;;;;20.50;7.10;;;;;;;19.11;100.00;101183.72;5029712;28;20049;-61
2023/06/10 08:12:17;;;;;;;11.10;6.47;;;;;;;19.10;100.00;101183.91;5029790;28;20120;-61
2023/06/10 08:14:43;;;;;;;15.55;7.13;;;;;;;19.06;100.00;101174.47;5028939;28;20115;-60
2023/06/10 08:17:10;;;;;;;17.13;7.90;;;;;;;19.02;100.00;101182.22;5029636;28;20492;-61
2023/06/10 08:19:37;;;;;;;12.73;7.10;;;;;;;19.10;100.00;101181.19;5029068;28;20389;-61
2023/06/10 08:22:04;;;;;;;18.48;8.43;;;;;;;19.31;100.00;101183.75;5029259;28;20103;-61
2023/06/10 08:24:30;;;;;;;16.98;7.40;;;;;;;19.32;100.00;101181.88;5029663;28;20394;-61
2023/06/10 08:26:57;;;;;;;13.43;6.55;;;;;;;19.53;100.00;101186.28;5028626;28;20045;-61
2023/06/10 08:29:25;;;;;;;15.48;7.40;;;;;;;19.39;100.00;101190.88;5029612;28;20099;-63
2023/06/10 08:31:51;;;;;;;14.95;6.15;;;;;;;20.11;99.81;101189.22;5029689;28;20084;-62
2023/06/10 08:34:18;;;;;;;17.70;7.57;;;;;;;20.63;95.45;101192.88;5032411;28;20052;-63
2023/06/10 08:36:45;;;;;;;17.33;7.55;;;;;;;20.87;87.38;101194.88;5033099;28;20049;-61
2023/06/10 08:39:12;;;;;;;19.77;6.53;;;;;;;21.46;83.74;101200.19;5032724;28;20052;-62
2023/06/10 08:41:43;;;;;;;13.13;6.25;;;;;;;21.55;81.23;101202.44;5033208;28;20046;-61
2023/06/10 08:44:13;;;;;;;;;;;;;;;21.93;79.55;101198.81;5033101;28;20491;-61
2023/06/10 08:46:44;;;;;;;15.82;7.50;;;;;;;22.18;77.52;101200.66;5032986;28;19921;-61
2023/06/10 08:49:22;;;;;;;14.98;6.90;;;;;;;22.82;73.38;101199.31;5032375;28;20044;-62
2023/06/10 08:52:00;;;;;;;14.23;7.15;;;;;;;22.51;74.35;101201.16;5033043;28;20542;-62
2023/06/10 08:54:34;;;;;;;14.10;6.35;;;;;;;22.82;71.36;101196.59;5032485;28;20037;-62
2023/06/10 08:57:03;;;;;;;15.32;6.60;;;;;;;23.11;70.04;101202.31;5032714;28;20045;-62
2023/06/10 08:59:30;;;;;;;14.35;6.75;;;;;;;23.70;65.95;101197.84;5032773;28;20056;-62
2023/06/10 09:01:57;;;;;;;16.38;6.47;;;;;;;23.26;66.60;101202.72;5032420;28;20076;-62
2023/06/10 09:04:25;;;;;;;19.83;6.60;;;;;;;23.22;67.35;101196.06;5032802;28;20045;-65
2023/06/10 09:06:53;;;;;;;13.48;6.97;;;;;;;23.09;67.92;101190.75;5032671;28;20643;-62
2023/06/10 09:09:20;;;;;;;16.42;7.25;;;;;;;23.20;66.36;101193.56;5032809;28;20048;-62
2023/06/10 09:11:46;;;;;;;17.05;6.40;;;;;;;23.75;66.14;101189.75;5032663;28;20099;-62
2023/06/10 09:14:13;;;;;;;13.38;6.43;;;;;;;23.71;64.03;101189.41;5032109;28;20046;-62
2023/06/10 09:16:41;;;;;;;12.02;5.60;;;;;;;24.07;63.34;101182.03;5032652;28;20122;-63
2023/06/10 09:19:08;;;;;;;13.68;6.78;;;;;;;24.37;62.39;101186.53;5031854;28;20047;-62
2023/06/10 09:21:35;;;;;;;12.75;6.10;;;;;;;24.85;60.43;101179.84;5032572;28;20099;-63
2023/06/10 09:24:02;;;;;;;17.02;6.20;;;;;;;25.79;56.53;101173.88;5031929;28;20049;-63
2023/06/10 09:26:32;;;;;;;14.13;6.15;;;;;;;25.51;55.60;101180.25;5030958;28;20041;-62
2023/06/10 09:29:06;;;;;;;13.70;6.07;;;;;;;25.37;56.23;101180.59;5031916;28;20475;-63
2023/06/10 09:31:36;;;;;;;21.08;6.75;;;;;;;24.63;56.89;101182.44;5031567;28;20042;-63
2023/06/10 09:34:15;;;;;;;18.15;6.25;;;;;;;25.06;57.42;101181.97;5014599;28;20550;-62
2023/06/10 09:36:41;;;;;;;16.90;7.00;;;;;;;25.07;57.40;101169.06;5032051;28;20041;-62
2023/06/10 09:39:16;;;;;;;11.55;6.25;;;;;;;24.54;59.51;101175.66;5031399;28;20051;-63
2023/06/10 09:41:44;;;;;;;22.27;6.22;;;;;;;24.92;58.28;101175.06;5031084;28;20042;-62
2023/06/10 09:44:21;;;;;;;15.50;6.68;;;;;;;24.73;58.43;101170.84;5032026;28;20103;-62
2023/06/10 09:46:50;;;;;;;19.52;6.50;;;;;;;24.35;58.57;101181.28;5031719;28;20073;-63
2023/06/10 09:49:17;;;;;;;13.05;5.70;;;;;;;25.15;56.56;101177.72;5031186;28;20459;-62
2023/06/10 09:51:52;;;;;;;23.00;6.63;;;;;;;24.87;56.50;101183.22;5031182;28;20055;-62
2023/06/10 09:54:19;;;;;;;15.70;6.30;;;;;;;23.98;59.15;101194.44;5031034;28;20041;-62
2023/06/10 09:56:51;;;;;;;16.17;6.05;;;;;;;23.34;62.67;101183.25;5030897;28;20485;-62
2023/06/10 09:59:29;;;;;;;13.98;6.00;;;;;;;22.49;66.07;101197.81;5031639;28;20046;-62
2023/06/10 10:01:56;;;;;;;16.10;6.43;;;;;;;22.42;68.44;101188.81;5030936;28;20119;-63
2023/06/10 10:04:25;;;;;;;17.20;6.75;;;;;;;22.01;71.11;101194.94;5032057;28;20041;-62
2023/06/10 10:06:52;;;;;;;21.05;6.13;;;;;;;21.87;71.95;101194.22;5031779;28;20037;-62
2023/06/10 10:09:19;;;;;;;14.30;6.43;;;;;;;21.25;75.41;101196.78;5031858;28;20119;-61
2023/06/10 10:11:47;;;;;;;19.95;7.13;;;;;;;21.01;76.13;101197.50;5031954;28;20052;-62
2023/06/10 10:14:16;;;;;;;14.15;6.55;;;;;;;20.84;78.11;101195.31;5031413;28;20489;-61
2023/06/10 10:16:43;;;;;;;14.80;6.55;;;;;;;20.78;79.54;101200.78;5031242;28;20111;-62
2023/06/10 10:19:23;;;;;;;19.38;6.53;;;;;;;20.83;80.48;101193.59;5031085;28;20057;-62
2023/06/10 10:21:54;;;;;;;14.93;6.70;;;;;;;20.64;79.41;101200.00;5031151;28;20099;-62
2023/06/10 10:24:22;;;;;;;;;;;;;;;20.64;76.70;101195.38;5031804;28;20064;-61
2023/06/10 10:26:51;;;;;;;15.07;7.20;;;;;;;20.79;76.30;101191.53;5030193;28;19947;-61
2023/06/10 10:29:38;;;;;;;13.68;6.30;;;;;;;20.62;75.19;101196.66;5013718;28;20069;-60
2023/06/10 10:32:08;;;;;;;13.25;6.55;;;;;;;20.68;74.38;101193.06;5030977;28;20144;-61
2023/06/10 10:35:04;;;;;;;18.33;6.25;;;;;;;20.65;72.74;101191.59;5030557;28;20120;-61
2023/06/10 10:37:31;;;;;;;12.10;6.63;;;;;;;20.61;72.34;101194.97;5010571;28;20042;-61
2023/06/10 11:28:55;;;;;;;9.02;4.82;;;;;;;22.49;51.01;101153.25;4917302;29;20048;-67
2023/06/10 11:31:25;;;;;;;8.25;3.90;;;;;;;22.59;51.21;101153.53;4951999;29;20047;-67
2023/06/10 12:16:10;;;;;;;8.43;4.72;;;;;;;22.93;51.52;101130.13;4954371;29;20062;-67
2023/06/10 12:18:37;;;;;;;12.10;5.38;;;;;;;22.76;52.44;101127.22;4954840;29;20051;-67
2023/06/10 12:21:15;;;;;;;9.07;4.70;;;;;;;22.74;52.98;101132.09;4954382;29;20094;-67
2023/06/10 12:24:06;;;;;;;8.35;4.97;;;;;;;22.85;54.17;101135.94;4953671;29;20047;-66
2023/06/10 12:26:41;;;;;;;9.10;4.60;;;;;;;22.70;55.07;101132.78;4955463;28;20571;-66
2023/06/10 12:29:24;;;;;;;10.40;4.55;;;;;;;22.72;55.73;101131.50;4993291;28;20062;-66
2023/06/10 12:32:00;;;;;;;7.38;4.72;;;;;;;22.78;55.41;101125.09;4992425;28;20046;-68
2023/06/10 12:34:38;;;;;;;7.60;4.55;;;;;;;22.81;54.57;101129.28;4993845;28;20046;-66
2023/06/10 12:37:12;;;;;;;10.68;4.97;;;;;;;22.95;53.59;101129.94;4974511;28;20051;-68
2023/06/10 12:39:40;;;;;;;6.35;4.38;;;;;;;22.83;52.99;101127.13;4973068;28;20387;-66
2023/06/10 12:42:09;;;;;;;11.60;4.50;;;;;;;22.69;51.69;101123.75;4973923;28;20046;-65
2023/06/10 12:44:39;;;;;;;7.72;4.75;;;;;;;22.53;52.71;101108.81;4973981;28;20042;-66
2023/06/10 12:47:12;;;;;;;9.32;4.38;;;;;;;22.53;52.89;101121.63;4973520;28;20043;-66
2023/06/10 12:49:39;;;;;;;9.63;4.78;;;;;;;22.72;52.99;101109.59;4973274;28;20046;-68
2023/06/10 12:52:07;;;;;;;7.63;4.45;;;;;;;22.68;53.95;101116.63;4973934;28;20046;-68
2023/06/10 12:54:34;;;;;;;12.63;5.45;;;;;;;22.86;54.43;101098.47;4973011;28;20558;-66